NVY845 EGPO-EGTF

Flight info

Callsign NVY845
Flight time N/A
Altitude 3000
Route EGPO EGTF
Aircraft P46T/L-SBDGRWY/SB1

Departure

Time 2026-04-26 09:59
Airport Stornoway Airport (EGPO)

Arrival

Time N/A
Airport Fairoaks Airport (EGTF)
Time Latitude Longitude Altitude Speed Heading
2026-04-26 09:48 58.21430 -6.32241 25 ft 0 kts 262°
2026-04-26 09:55 58.21438 -6.32255 26 ft 3 kts 15°
2026-04-26 09:56 58.21465 -6.32217 25 ft 6 kts 72°
2026-04-26 09:56 58.21471 -6.32126 26 ft 6 kts 83°
2026-04-26 09:56 58.21475 -6.32062 31 ft 4 kts 85°
2026-04-26 09:56 58.21488 -6.31979 32 ft 11 kts 57°
2026-04-26 09:57 58.21552 -6.31916 30 ft 11 kts 21°
2026-04-26 09:57 58.21616 -6.31920 23 ft 8 kts 318°
2026-04-26 09:57 58.21659 -6.31990 20 ft 6 kts 319°
2026-04-26 09:57 58.21683 -6.32065 22 ft 8 kts 260°
2026-04-26 09:58 58.21675 -6.32102 24 ft 0 kts 240°
2026-04-26 09:58 58.21664 -6.32140 26 ft 18 kts 238°
2026-04-26 09:58 58.21505 -6.32665 20 ft 72 kts 240°
2026-04-26 09:58 58.21198 -6.33670 172 ft 94 kts 240°
2026-04-26 09:59 58.20897 -6.34770 592 ft 95 kts 237°
2026-04-26 09:59 58.20587 -6.36007 861 ft 113 kts 240°
2026-04-26 09:59 58.20026 -6.36879 1359 ft 111 kts 185°
2026-04-26 09:59 58.19265 -6.36481 1853 ft 116 kts 169°
2026-04-26 10:00 58.18418 -6.35979 2015 ft 142 kts 170°
2026-04-26 10:00 58.17418 -6.35413 2017 ft 156 kts 173°
2026-04-26 10:00 58.16320 -6.35155 2015 ft 161 kts 186°
2026-04-26 10:00 58.15181 -6.35238 2010 ft 166 kts 187°
2026-04-26 10:01 58.14031 -6.35463 2011 ft 167 kts 195°
2026-04-26 10:01 58.12901 -6.35946 2010 ft 170 kts 196°
2026-04-26 10:01 58.11735 -6.36461 2009 ft 174 kts 197°
2026-04-26 10:01 58.10550 -6.36982 2009 ft 175 kts 196°
2026-04-26 10:02 58.09380 -6.37589 2011 ft 173 kts 208°
2026-04-26 10:02 58.08614 -6.39281 2015 ft 178 kts 249°
2026-04-26 10:02 58.08701 -6.41631 2012 ft 189 kts 290°
2026-04-26 10:02 58.09404 -6.43726 1997 ft 186 kts 296°
2026-04-26 10:03 58.09911 -6.45881 1989 ft 173 kts 274°
2026-04-26 10:03 58.09970 -6.48115 1992 ft 169 kts 267°
2026-04-26 10:03 58.09986 -6.50300 1993 ft 169 kts 266°
2026-04-26 10:03 58.10002 -6.52530 1993 ft 170 kts 266°
2026-04-26 10:04 58.10012 -6.54773 1994 ft 171 kts 266°
2026-04-26 10:04 58.10016 -6.57015 1994 ft 169 kts 266°
2026-04-26 10:04 58.10022 -6.59226 1995 ft 167 kts 267°
2026-04-26 10:04 58.10015 -6.61411 1995 ft 165 kts 266°
2026-04-26 10:05 58.10007 -6.63592 1998 ft 167 kts 266°
2026-04-26 10:05 58.09874 -6.65742 1990 ft 163 kts 252°
2026-04-26 10:05 58.09572 -6.67816 1990 ft 163 kts 251°
2026-04-26 10:05 58.09271 -6.69852 1996 ft 162 kts 252°
2026-04-26 10:06 58.08950 -6.71927 2002 ft 167 kts 251°
2026-04-26 10:06 58.08617 -6.74038 2002 ft 167 kts 251°
2026-04-26 10:06 58.08289 -6.76150 2004 ft 167 kts 252°
2026-04-26 10:06 58.07964 -6.78267 2006 ft 169 kts 251°
2026-04-26 10:07 58.07627 -6.80400 1999 ft 169 kts 251°
2026-04-26 10:07 58.07295 -6.82519 2007 ft 168 kts 251°
2026-04-26 10:07 58.06970 -6.84629 2008 ft 168 kts 251°
2026-04-26 10:07 58.06641 -6.86770 2003 ft 170 kts 251°
2026-04-26 10:08 58.06310 -6.88916 2004 ft 169 kts 251°
2026-04-26 10:08 58.05982 -6.91015 2007 ft 169 kts 251°
2026-04-26 10:08 58.05653 -6.93154 2010 ft 170 kts 251°
2026-04-26 10:08 58.05327 -6.95310 2005 ft 171 kts 251°
2026-04-26 10:09 58.04994 -6.97465 2007 ft 171 kts 251°
2026-04-26 10:09 58.04657 -6.99626 2007 ft 171 kts 251°
2026-04-26 10:09 58.04326 -7.01787 2007 ft 172 kts 251°
2026-04-26 10:09 58.03996 -7.03960 2007 ft 173 kts 251°
2026-04-26 10:10 58.03669 -7.06127 2005 ft 173 kts 251°
2026-04-26 10:10 58.03342 -7.08284 2003 ft 170 kts 251°
2026-04-26 10:10 58.03012 -7.10410 2002 ft 169 kts 251°
2026-04-26 10:10 58.02641 -7.12499 1978 ft 164 kts 237°
2026-04-26 10:11 58.01801 -7.13713 1988 ft 151 kts 197°
2026-04-26 10:11 58.00756 -7.13926 1982 ft 150 kts 188°
2026-04-26 10:11 57.99668 -7.14067 1599 ft 163 kts 188°
2026-04-26 10:11 57.98508 -7.14248 1216 ft 170 kts 187°
2026-04-26 10:12 57.97329 -7.14496 1003 ft 168 kts 188°
2026-04-26 10:12 57.96180 -7.14748 1005 ft 169 kts 187°
2026-04-26 10:12 57.95011 -7.15018 1008 ft 170 kts 188°
2026-04-26 10:12 57.93830 -7.15292 1014 ft 173 kts 187°
2026-04-26 10:13 57.92623 -7.15574 1013 ft 177 kts 187°
2026-04-26 10:13 57.91390 -7.15861 1014 ft 180 kts 187°
2026-04-26 10:13 57.90154 -7.16147 1013 ft 180 kts 187°
2026-04-26 10:13 57.88909 -7.16434 1015 ft 179 kts 187°
2026-04-26 10:14 57.87680 -7.16699 1012 ft 177 kts 187°
2026-04-26 10:14 57.86473 -7.16968 1009 ft 178 kts 187°
2026-04-26 10:14 57.85247 -7.17240 1007 ft 176 kts 187°
2026-04-26 10:14 57.84038 -7.17514 1005 ft 175 kts 187°
2026-04-26 10:15 57.82831 -7.17791 1004 ft 174 kts 187°
2026-04-26 10:15 57.81634 -7.18058 1004 ft 172 kts 187°
2026-04-26 10:15 57.80447 -7.18318 1002 ft 172 kts 187°
2026-04-26 10:15 57.79254 -7.18594 999 ft 174 kts 188°
2026-04-26 10:16 57.78060 -7.18867 996 ft 170 kts 190°
2026-04-26 10:16 57.76968 -7.19648 991 ft 169 kts 206°
2026-04-26 10:16 57.75942 -7.20648 996 ft 168 kts 207°
2026-04-26 10:16 57.74898 -7.21652 993 ft 170 kts 206°
2026-04-26 10:17 57.73853 -7.22671 1000 ft 169 kts 206°
2026-04-26 10:17 57.72810 -7.23720 999 ft 171 kts 206°
2026-04-26 10:17 57.71769 -7.24766 1006 ft 170 kts 206°
2026-04-26 10:17 57.70727 -7.25793 1013 ft 169 kts 206°
2026-04-26 10:18 57.69688 -7.26826 1014 ft 168 kts 206°
2026-04-26 10:18 57.68653 -7.27852 1002 ft 168 kts 206°
2026-04-26 10:18 57.67613 -7.28867 1003 ft 169 kts 207°
2026-04-26 10:18 57.66572 -7.29880 1004 ft 169 kts 206°
2026-04-26 10:19 57.65541 -7.30853 1015 ft 168 kts 205°
2026-04-26 10:19 57.64618 -7.32207 1011 ft 169 kts 222°
2026-04-26 10:19 57.63759 -7.33709 1017 ft 169 kts 221°
2026-04-26 10:19 57.62901 -7.35226 1023 ft 171 kts 222°
2026-04-26 10:20 57.62031 -7.36764 1019 ft 173 kts 221°
2026-04-26 10:20 57.61156 -7.38302 1022 ft 173 kts 221°
2026-04-26 10:20 57.60277 -7.39847 1027 ft 174 kts 221°
2026-04-26 10:20 57.59382 -7.41338 1025 ft 170 kts 212°
2026-04-26 10:21 57.58258 -7.41726 1017 ft 171 kts 172°
2026-04-26 10:21 57.57119 -7.41137 1026 ft 170 kts 165°
2026-04-26 10:21 57.55982 -7.40500 1027 ft 171 kts 166°
2026-04-26 10:21 57.54844 -7.39843 1025 ft 172 kts 165°
2026-04-26 10:22 57.53713 -7.39175 1024 ft 169 kts 165°
2026-04-26 10:22 57.52579 -7.38671 1022 ft 167 kts 174°
2026-04-26 10:22 57.51421 -7.38415 1021 ft 168 kts 176°
2026-04-26 10:22 57.50277 -7.38064 1014 ft 164 kts 163°
2026-04-26 10:23 57.49351 -7.36957 1017 ft 158 kts 147°
2026-04-26 10:23 57.48500 -7.35740 1016 ft 151 kts 147°
2026-04-26 10:23 57.47697 -7.34556 1040 ft 145 kts 144°
2026-04-26 10:23 57.46950 -7.33316 1032 ft 142 kts 143°
2026-04-26 10:24 57.46222 -7.32101 1026 ft 139 kts 142°
2026-04-26 10:24 57.45855 -7.30430 1013 ft 152 kts 93°
2026-04-26 10:24 57.46306 -7.28619 1029 ft 152 kts 55°
2026-04-26 10:24 57.46930 -7.27179 1012 ft 136 kts 54°
2026-04-26 10:25 57.47653 -7.26121 927 ft 132 kts 17°
2026-04-26 10:25 57.48447 -7.26207 870 ft 111 kts 331°
2026-04-26 10:25 57.49079 -7.26934 795 ft 105 kts 319°
2026-04-26 10:25 57.49635 -7.27762 760 ft 101 kts 308°
2026-04-26 10:26 57.50003 -7.28807 722 ft 92 kts 274°
2026-04-26 10:26 57.49996 -7.29984 638 ft 92 kts 251°
2026-04-26 10:26 57.49809 -7.31106 517 ft 88 kts 244°
2026-04-26 10:26 57.49569 -7.32126 415 ft 85 kts 241°
2026-04-26 10:27 57.49296 -7.33079 310 ft 82 kts 233°
2026-04-26 10:27 57.48973 -7.33940 183 ft 81 kts 229°
2026-04-26 10:27 57.48657 -7.34789 58 ft 77 kts 231°
2026-04-26 10:27 57.48374 -7.35546 18 ft 64 kts 236°
2026-04-26 10:28 57.48197 -7.36034 15 ft 20 kts 236°
2026-04-26 10:28 57.48085 -7.36335 18 ft 48 kts 235°
2026-04-26 10:28 57.47806 -7.37095 34 ft 91 kts 234°
2026-04-26 10:28 57.47427 -7.38090 372 ft 96 kts 232°
2026-04-26 10:29 57.47039 -7.39072 820 ft 94 kts 227°
2026-04-26 10:29 57.46565 -7.40112 1007 ft 118 kts 227°
2026-04-26 10:29 57.45967 -7.41412 1026 ft 149 kts 228°
2026-04-26 10:29 57.45345 -7.43086 1040 ft 165 kts 249°
2026-04-26 10:30 57.45450 -7.45238 1040 ft 180 kts 293°
2026-04-26 10:30 57.46226 -7.47116 1033 ft 185 kts 306°
2026-04-26 10:30 57.47277 -7.48510 1034 ft 194 kts 341°
2026-04-26 10:30 57.48619 -7.48656 1041 ft 198 kts 14°
2026-04-26 10:31 57.49745 -7.47262 1036 ft 197 kts 53°
2026-04-26 10:31 57.50581 -7.45251 1031 ft 197 kts 56°
2026-04-26 10:31 57.51388 -7.43219 1034 ft 198 kts 57°
2026-04-26 10:31 57.52208 -7.41153 1032 ft 199 kts 57°
2026-04-26 10:32 57.53035 -7.39076 1032 ft 200 kts 58°
2026-04-26 10:32 57.53766 -7.36913 1039 ft 195 kts 76°
2026-04-26 10:32 57.53678 -7.34593 1384 ft 170 kts 125°
2026-04-26 10:32 57.52859 -7.33462 2194 ft 134 kts 171°
2026-04-26 10:33 57.52026 -7.32992 2863 ft 123 kts 165°
2026-04-26 10:33 57.51238 -7.32338 3333 ft 124 kts 163°
2026-04-26 10:33 57.50444 -7.31712 3816 ft 124 kts 163°
2026-04-26 10:33 57.49644 -7.31069 4273 ft 126 kts 163°
2026-04-26 10:34 57.48852 -7.30431 4752 ft 125 kts 163°
2026-04-26 10:34 57.48051 -7.29776 5216 ft 126 kts 163°
2026-04-26 10:34 57.47245 -7.29102 5654 ft 127 kts 163°
2026-04-26 10:34 57.46435 -7.28417 6096 ft 128 kts 163°
2026-04-26 10:35 57.45620 -7.27722 6551 ft 130 kts 163°
2026-04-26 10:35 57.44799 -7.27013 6990 ft 130 kts 163°
2026-04-26 10:35 57.43981 -7.26301 7427 ft 130 kts 163°
2026-04-26 10:35 57.43158 -7.25585 7857 ft 131 kts 163°
2026-04-26 10:36 57.42335 -7.24864 8301 ft 131 kts 163°
2026-04-26 10:36 57.41516 -7.24140 8670 ft 138 kts 164°
2026-04-26 10:36 57.40593 -7.23359 8933 ft 149 kts 164°
2026-04-26 10:36 57.39651 -7.22571 9393 ft 148 kts 164°
2026-04-26 10:37 57.38712 -7.21778 9832 ft 149 kts 164°
2026-04-26 10:37 57.37770 -7.20980 10249 ft 149 kts 164°
2026-04-26 10:37 57.36826 -7.20176 10617 ft 150 kts 164°
2026-04-26 10:37 57.35871 -7.19359 10975 ft 152 kts 164°
2026-04-26 10:38 57.34907 -7.18535 11339 ft 153 kts 164°
2026-04-26 10:38 57.33948 -7.17718 11696 ft 155 kts 164°
2026-04-26 10:38 57.32966 -7.16881 12057 ft 156 kts 164°
2026-04-26 10:38 57.31971 -7.16037 12407 ft 158 kts 163°
2026-04-26 10:39 57.30966 -7.15203 12783 ft 159 kts 164°
2026-04-26 10:39 57.29949 -7.14360 13184 ft 161 kts 164°
2026-04-26 10:39 57.28920 -7.13505 13575 ft 163 kts 164°
2026-04-26 10:39 57.27877 -7.12636 13957 ft 165 kts 164°
2026-04-26 10:40 57.26824 -7.11756 14296 ft 167 kts 164°
2026-04-26 10:40 57.25765 -7.10868 14639 ft 168 kts 164°
2026-04-26 10:40 57.24715 -7.09985 14972 ft 169 kts 164°
2026-04-26 10:40 57.23645 -7.09081 15313 ft 170 kts 164°
2026-04-26 10:41 57.22571 -7.08170 15654 ft 170 kts 164°
2026-04-26 10:41 57.21492 -7.07251 15995 ft 171 kts 164°
2026-04-26 10:41 57.20407 -7.06325 16336 ft 172 kts 164°
2026-04-26 10:41 57.19317 -7.05390 16673 ft 173 kts 164°
2026-04-26 10:42 57.18222 -7.04448 16994 ft 174 kts 164°
2026-04-26 10:42 57.17116 -7.03498 17306 ft 177 kts 164°
2026-04-26 10:42 57.15996 -7.02544 17642 ft 178 kts 164°
2026-04-26 10:42 57.14886 -7.01595 17984 ft 179 kts 164°
2026-04-26 10:43 57.13748 -7.00624 18231 ft 186 kts 164°
2026-04-26 10:43 57.12518 -6.99607 18247 ft 201 kts 164°
2026-04-26 10:43 57.11198 -6.98545 18245 ft 212 kts 164°
2026-04-26 10:43 57.09814 -6.97451 18246 ft 220 kts 164°
2026-04-26 10:44 57.08384 -6.96329 18247 ft 226 kts 164°
2026-04-26 10:44 57.06924 -6.95193 18247 ft 230 kts 164°
2026-04-26 10:44 57.05442 -6.94046 18245 ft 232 kts 164°
2026-04-26 10:44 57.03947 -6.92896 18247 ft 234 kts 165°
2026-04-26 10:45 57.02461 -6.91756 18247 ft 235 kts 165°
2026-04-26 10:45 57.00950 -6.90600 18246 ft 236 kts 165°
2026-04-26 10:45 56.99435 -6.89442 18246 ft 236 kts 165°
2026-04-26 10:45 56.97918 -6.88286 18246 ft 237 kts 165°
2026-04-26 10:46 56.96396 -6.87128 18251 ft 237 kts 165°
2026-04-26 10:46 56.94874 -6.85971 18250 ft 237 kts 165°
2026-04-26 10:46 56.93353 -6.84815 18249 ft 237 kts 165°
2026-04-26 10:46 56.91828 -6.83656 18233 ft 237 kts 165°
2026-04-26 10:47 56.90266 -6.82865 18246 ft 231 kts 176°
2026-04-26 10:47 56.88703 -6.82415 18247 ft 231 kts 178°
2026-04-26 10:47 56.87112 -6.82003 18247 ft 231 kts 179°
2026-04-26 10:47 56.85517 -6.81599 18252 ft 231 kts 179°
2026-04-26 10:48 56.83922 -6.81196 18248 ft 232 kts 179°
2026-04-26 10:48 56.82325 -6.80793 18247 ft 232 kts 179°
2026-04-26 10:48 56.80726 -6.80391 18245 ft 232 kts 179°
2026-04-26 10:48 56.79128 -6.79989 18244 ft 232 kts 179°
2026-04-26 10:49 56.77533 -6.79506 18231 ft 234 kts 172°
2026-04-26 10:49 56.75963 -6.78649 18240 ft 236 kts 169°
2026-04-26 10:49 56.74422 -6.77733 18239 ft 236 kts 169°
2026-04-26 10:49 56.72861 -6.76799 18242 ft 236 kts 168°
2026-04-26 10:50 56.71300 -6.75863 18241 ft 236 kts 168°
2026-04-26 10:50 56.70244 -6.75230 18242 ft 236 kts 168°
2026-04-26 10:50 56.68175 -6.73991 18242 ft 236 kts 168°
2026-04-26 10:50 56.66614 -6.73056 18241 ft 236 kts 168°
2026-04-26 10:51 56.65055 -6.72124 18247 ft 236 kts 169°
2026-04-26 10:51 56.61931 -6.70252 18245 ft 237 kts 169°
2026-04-26 10:51 56.60368 -6.69316 18243 ft 237 kts 169°
2026-04-26 10:52 56.58823 -6.68393 18245 ft 237 kts 169°
2026-04-26 10:52 56.57257 -6.67457 18246 ft 237 kts 169°
2026-04-26 10:52 56.55689 -6.66521 18244 ft 237 kts 169°
2026-04-26 10:52 56.54120 -6.65585 18245 ft 237 kts 169°
2026-04-26 10:53 56.52553 -6.64651 18243 ft 237 kts 169°
2026-04-26 10:53 56.50982 -6.63718 18192 ft 239 kts 169°
2026-04-26 10:53 56.49405 -6.62785 18144 ft 238 kts 169°
2026-04-26 10:54 56.46256 -6.60930 17832 ft 238 kts 169°
2026-04-26 10:54 56.44704 -6.60019 17698 ft 237 kts 169°
2026-04-26 10:54 56.43136 -6.59101 17557 ft 237 kts 169°
2026-04-26 10:54 56.41573 -6.58188 17421 ft 236 kts 169°
2026-04-26 10:55 56.40011 -6.57279 17273 ft 235 kts 169°
2026-04-26 10:55 56.38451 -6.56373 17134 ft 236 kts 169°
2026-04-26 10:55 56.36893 -6.55474 17005 ft 235 kts 169°
2026-04-26 10:55 56.35342 -6.54584 16797 ft 234 kts 169°
2026-04-26 10:56 56.33790 -6.53697 16538 ft 234 kts 169°
2026-04-26 10:56 56.32244 -6.52817 16303 ft 233 kts 169°
2026-04-26 10:56 56.30724 -6.51954 16074 ft 232 kts 169°
2026-04-26 10:56 56.29190 -6.51087 15843 ft 231 kts 169°
2026-04-26 10:57 56.27660 -6.50227 15630 ft 230 kts 169°
2026-04-26 10:57 56.26137 -6.49375 15410 ft 229 kts 169°
2026-04-26 10:57 56.24615 -6.48526 15203 ft 228 kts 169°
2026-04-26 10:57 56.23100 -6.47683 14998 ft 228 kts 169°
2026-04-26 10:58 56.21589 -6.46846 14797 ft 227 kts 169°
2026-04-26 10:58 56.20082 -6.46014 14601 ft 226 kts 169°
2026-04-26 10:58 56.18580 -6.45189 14408 ft 225 kts 169°
2026-04-26 10:58 56.17083 -6.44369 14219 ft 225 kts 169°
2026-04-26 10:59 56.15587 -6.43553 14024 ft 224 kts 169°
2026-04-26 10:59 56.14096 -6.42743 13817 ft 224 kts 169°
2026-04-26 10:59 56.12607 -6.41938 13581 ft 223 kts 169°
2026-04-26 10:59 56.11122 -6.41136 13388 ft 223 kts 169°
2026-04-26 11:00 56.09657 -6.40348 13208 ft 222 kts 169°
2026-04-26 11:00 56.08184 -6.39558 13028 ft 221 kts 169°
2026-04-26 11:00 56.06711 -6.38773 12848 ft 220 kts 169°
2026-04-26 11:00 56.05244 -6.37997 12672 ft 220 kts 169°
2026-04-26 11:01 56.03780 -6.37228 12496 ft 219 kts 169°
2026-04-26 11:01 56.02319 -6.36467 12331 ft 219 kts 169°
2026-04-26 11:01 56.00859 -6.35711 12170 ft 218 kts 169°
2026-04-26 11:01 55.99406 -6.34963 12021 ft 217 kts 169°
2026-04-26 11:02 55.97957 -6.34222 11861 ft 216 kts 169°
2026-04-26 11:02 55.96530 -6.33499 11712 ft 216 kts 169°
2026-04-26 11:02 55.95087 -6.32771 11563 ft 215 kts 169°
2026-04-26 11:02 55.93649 -6.32047 11422 ft 214 kts 169°
2026-04-26 11:03 55.92213 -6.31329 11276 ft 214 kts 169°
2026-04-26 11:03 55.90780 -6.30614 11134 ft 214 kts 169°
2026-04-26 11:03 55.89349 -6.29906 10998 ft 213 kts 169°
2026-04-26 11:03 55.87921 -6.29203 10864 ft 212 kts 169°
2026-04-26 11:04 55.86499 -6.28510 10666 ft 212 kts 169°
2026-04-26 11:04 55.85079 -6.27821 10464 ft 210 kts 169°
2026-04-26 11:04 55.83689 -6.27143 10218 ft 209 kts 169°
2026-04-26 11:04 55.82286 -6.26459 9958 ft 209 kts 169°
2026-04-26 11:05 55.80892 -6.25786 9733 ft 207 kts 169°
2026-04-26 11:05 55.79507 -6.25111 9504 ft 206 kts 169°
2026-04-26 11:05 55.78125 -6.24445 9270 ft 205 kts 169°
2026-04-26 11:05 55.76750 -6.23784 9036 ft 205 kts 169°
2026-04-26 11:06 55.75377 -6.23127 8835 ft 204 kts 169°
2026-04-26 11:06 55.74473 -6.22693 8727 ft 203 kts 169°
2026-04-26 11:06 55.72669 -6.21829 8463 ft 202 kts 169°
2026-04-26 11:06 55.71317 -6.21175 8243 ft 201 kts 169°
2026-04-26 11:07 55.69974 -6.20525 8015 ft 200 kts 169°
2026-04-26 11:07 55.68633 -6.19873 7796 ft 199 kts 169°
2026-04-26 11:07 55.67295 -6.19224 7606 ft 199 kts 169°
2026-04-26 11:07 55.65967 -6.18580 7402 ft 197 kts 169°
2026-04-26 11:08 55.64644 -6.17935 7246 ft 197 kts 169°
2026-04-26 11:08 55.63328 -6.17294 7075 ft 196 kts 169°
2026-04-26 11:08 55.62036 -6.16465 6880 ft 199 kts 162°
2026-04-26 11:08 55.60783 -6.15508 6689 ft 198 kts 161°
2026-04-26 11:09 55.59523 -6.14539 6488 ft 197 kts 161°
2026-04-26 11:09 55.58267 -6.13577 6287 ft 197 kts 161°
2026-04-26 11:09 55.57012 -6.12622 6085 ft 196 kts 161°
2026-04-26 11:09 55.55759 -6.11673 5877 ft 196 kts 161°
2026-04-26 11:10 55.54507 -6.10734 5694 ft 195 kts 161°
2026-04-26 11:10 55.53254 -6.09803 5495 ft 195 kts 161°
2026-04-26 11:10 55.52001 -6.08881 5306 ft 195 kts 161°
2026-04-26 11:10 55.50747 -6.07964 5130 ft 195 kts 161°
2026-04-26 11:11 55.49517 -6.07074 5010 ft 191 kts 161°
2026-04-26 11:11 55.48311 -6.06189 5004 ft 185 kts 161°
2026-04-26 11:11 55.47138 -6.05324 4996 ft 181 kts 161°
2026-04-26 11:11 55.45982 -6.04470 4995 ft 179 kts 161°
2026-04-26 11:12 55.44838 -6.03633 4999 ft 178 kts 161°
2026-04-26 11:12 55.43700 -6.02803 4998 ft 177 kts 161°
2026-04-26 11:12 55.42568 -6.01976 4995 ft 176 kts 161°
2026-04-26 11:12 55.41442 -6.01143 4997 ft 176 kts 161°
2026-04-26 11:13 55.40314 -6.00308 4999 ft 176 kts 161°
2026-04-26 11:13 55.39202 -5.99485 4999 ft 176 kts 161°
2026-04-26 11:13 55.38126 -5.98470 4994 ft 179 kts 142°
2026-04-26 11:13 55.37295 -5.96831 5001 ft 180 kts 134°
2026-04-26 11:14 55.36487 -5.95149 5004 ft 180 kts 134°
2026-04-26 11:14 55.35659 -5.93446 4880 ft 186 kts 134°
2026-04-26 11:14 55.34810 -5.91698 4754 ft 189 kts 134°
2026-04-26 11:14 55.34243 -5.90529 4670 ft 190 kts 134°
2026-04-26 11:15 55.33085 -5.88156 4500 ft 192 kts 134°
2026-04-26 11:15 55.32213 -5.86382 4372 ft 192 kts 134°
2026-04-26 11:15 55.31351 -5.84625 4246 ft 192 kts 134°
2026-04-26 11:15 55.30481 -5.82842 4114 ft 192 kts 134°
2026-04-26 11:16 55.29609 -5.81065 4016 ft 191 kts 134°
2026-04-26 11:16 55.28758 -5.79322 4013 ft 186 kts 134°
2026-04-26 11:16 55.27927 -5.77606 4008 ft 183 kts 134°
2026-04-26 11:16 55.27106 -5.75913 4003 ft 181 kts 134°
2026-04-26 11:17 55.26288 -5.74235 4002 ft 180 kts 134°
2026-04-26 11:17 55.25475 -5.72574 4001 ft 179 kts 134°
2026-04-26 11:17 55.24667 -5.70918 4002 ft 179 kts 134°
2026-04-26 11:17 55.23870 -5.69280 4001 ft 179 kts 134°
2026-04-26 11:18 55.23055 -5.67621 4005 ft 180 kts 134°
2026-04-26 11:18 55.22239 -5.65957 4004 ft 180 kts 134°
2026-04-26 11:18 55.21425 -5.64287 4004 ft 180 kts 134°
2026-04-26 11:18 55.20605 -5.62625 4004 ft 180 kts 134°
2026-04-26 11:19 55.19785 -5.60962 4005 ft 180 kts 134°
2026-04-26 11:19 55.18972 -5.59294 4006 ft 180 kts 134°
2026-04-26 11:19 55.18159 -5.57634 4004 ft 179 kts 134°
2026-04-26 11:19 55.17344 -5.55981 4004 ft 179 kts 134°
2026-04-26 11:20 55.16526 -5.54332 4005 ft 180 kts 134°
2026-04-26 11:20 55.15986 -5.53236 4004 ft 180 kts 134°
2026-04-26 11:20 55.14900 -5.51053 4003 ft 180 kts 134°
2026-04-26 11:20 55.14076 -5.49402 3998 ft 180 kts 134°
2026-04-26 11:21 55.13191 -5.47912 4007 ft 175 kts 150°
2026-04-26 11:21 55.12135 -5.46891 4011 ft 173 kts 155°
2026-04-26 11:21 55.11069 -5.45901 4011 ft 173 kts 155°
2026-04-26 11:21 55.10004 -5.44908 4010 ft 173 kts 155°
2026-04-26 11:22 55.08939 -5.43919 4009 ft 174 kts 155°
2026-04-26 11:22 55.07863 -5.42940 4009 ft 175 kts 155°
2026-04-26 11:22 55.06800 -5.41974 4010 ft 175 kts 155°
2026-04-26 11:22 55.05722 -5.40998 4007 ft 175 kts 155°
2026-04-26 11:23 55.04647 -5.40017 4009 ft 174 kts 155°
2026-04-26 11:23 55.03581 -5.39028 4010 ft 174 kts 155°
2026-04-26 11:23 55.02513 -5.38039 4010 ft 174 kts 155°
2026-04-26 11:23 55.01439 -5.37054 4006 ft 175 kts 155°
2026-04-26 11:24 55.00362 -5.36071 4007 ft 175 kts 155°
2026-04-26 11:24 54.99284 -5.35078 3944 ft 177 kts 155°
2026-04-26 11:24 54.98185 -5.34069 3826 ft 179 kts 155°
2026-04-26 11:24 54.97092 -5.33068 3693 ft 180 kts 155°
2026-04-26 11:25 54.95977 -5.32056 3578 ft 181 kts 156°
2026-04-26 11:25 54.94856 -5.31039 3456 ft 182 kts 155°
2026-04-26 11:25 54.93738 -5.30021 3319 ft 182 kts 156°
2026-04-26 11:25 54.92619 -5.29003 3194 ft 181 kts 155°
2026-04-26 11:26 54.91501 -5.27997 3064 ft 181 kts 155°
2026-04-26 11:26 54.90386 -5.27006 3016 ft 178 kts 155°
2026-04-26 11:26 54.89285 -5.26049 3010 ft 176 kts 155°
2026-04-26 11:26 54.88215 -5.25116 3004 ft 173 kts 155°
2026-04-26 11:27 54.87152 -5.24174 3006 ft 171 kts 155°
2026-04-26 11:27 54.86094 -5.23245 3005 ft 170 kts 156°
2026-04-26 11:27 54.85040 -5.22316 3005 ft 170 kts 155°
2026-04-26 11:27 54.83966 -5.21362 3008 ft 176 kts 155°
2026-04-26 11:28 54.82866 -5.20392 3008 ft 179 kts 155°
2026-04-26 11:28 54.81752 -5.19408 3012 ft 180 kts 155°
2026-04-26 11:28 54.80627 -5.18428 3013 ft 183 kts 156°
2026-04-26 11:28 54.79484 -5.17439 3015 ft 184 kts 156°
2026-04-26 11:29 54.78352 -5.16458 2994 ft 182 kts 156°
2026-04-26 11:29 54.77212 -5.15476 2600 ft 186 kts 155°
2026-04-26 11:29 54.76051 -5.14482 2269 ft 185 kts 156°
2026-04-26 11:29 54.74901 -5.13496 2019 ft 181 kts 156°
2026-04-26 11:30 54.73808 -5.12564 2006 ft 170 kts 155°
2026-04-26 11:30 54.73116 -5.11978 2001 ft 165 kts 156°
2026-04-26 11:30 54.71772 -5.10827 1999 ft 158 kts 156°
2026-04-26 11:30 54.70798 -5.09985 2002 ft 155 kts 155°
2026-04-26 11:31 54.69833 -5.09151 2002 ft 155 kts 155°
2026-04-26 11:31 54.68879 -5.08326 2001 ft 155 kts 155°
2026-04-26 11:31 54.67916 -5.07494 2004 ft 153 kts 156°
2026-04-26 11:31 54.66974 -5.06670 2001 ft 150 kts 156°
2026-04-26 11:32 54.66050 -5.05852 2004 ft 149 kts 155°
2026-04-26 11:32 54.65118 -5.05043 2002 ft 150 kts 156°
2026-04-26 11:32 54.64190 -5.04212 2001 ft 151 kts 155°
2026-04-26 11:32 54.63247 -5.03389 2003 ft 152 kts 155°
2026-04-26 11:33 54.62295 -5.02602 2006 ft 151 kts 164°
2026-04-26 11:33 54.61258 -5.02477 2015 ft 150 kts 182°
2026-04-26 11:33 54.60228 -5.02496 2045 ft 150 kts 181°
2026-04-26 11:33 54.59236 -5.02503 2673 ft 137 kts 181°
2026-04-26 11:34 54.58277 -5.02505 3146 ft 139 kts 181°
2026-04-26 11:34 54.57301 -5.02501 3618 ft 141 kts 181°
2026-04-26 11:34 54.56316 -5.02491 4088 ft 142 kts 181°
2026-04-26 11:34 54.55325 -5.02472 4578 ft 143 kts 181°
2026-04-26 11:35 54.54326 -5.02445 5066 ft 144 kts 181°
2026-04-26 11:35 54.53323 -5.02406 5542 ft 144 kts 181°
2026-04-26 11:35 54.52318 -5.02359 6012 ft 145 kts 181°
2026-04-26 11:35 54.51651 -5.02325 6330 ft 145 kts 181°
2026-04-26 11:36 54.50306 -5.02308 6940 ft 145 kts 184°
2026-04-26 11:36 54.49313 -5.02313 7384 ft 144 kts 183°
2026-04-26 11:36 54.48307 -5.02310 7833 ft 145 kts 183°
2026-04-26 11:36 54.47303 -5.02305 8284 ft 144 kts 183°
2026-04-26 11:37 54.46296 -5.02298 8739 ft 145 kts 184°
2026-04-26 11:37 54.45290 -5.02290 9196 ft 145 kts 184°
2026-04-26 11:37 54.44280 -5.02283 9651 ft 145 kts 184°
2026-04-26 11:37 54.43270 -5.02277 10112 ft 145 kts 184°
2026-04-26 11:38 54.42258 -5.02269 10535 ft 146 kts 184°
2026-04-26 11:38 54.41235 -5.02263 10932 ft 148 kts 184°
2026-04-26 11:38 54.40195 -5.02257 11325 ft 151 kts 184°
2026-04-26 11:38 54.39155 -5.02249 11706 ft 153 kts 184°
2026-04-26 11:39 54.38087 -5.02242 12099 ft 155 kts 184°
2026-04-26 11:39 54.37003 -5.02235 12492 ft 157 kts 184°
2026-04-26 11:39 54.35905 -5.02228 12882 ft 159 kts 184°
2026-04-26 11:39 54.34792 -5.02220 13271 ft 161 kts 184°
2026-04-26 11:40 54.33663 -5.02212 13661 ft 163 kts 184°
2026-04-26 11:40 54.32518 -5.02204 14055 ft 166 kts 184°
2026-04-26 11:40 54.31359 -5.02197 14406 ft 167 kts 184°
2026-04-26 11:40 54.30192 -5.02188 14759 ft 168 kts 184°
2026-04-26 11:41 54.29033 -5.02181 15113 ft 169 kts 184°
2026-04-26 11:42 54.20593 -5.02125 17663 ft 177 kts 185°
2026-04-26 11:43 54.19374 -5.02116 18026 ft 178 kts 185°
2026-04-26 11:43 54.18128 -5.02108 18391 ft 180 kts 185°
2026-04-26 11:43 54.16874 -5.02099 18732 ft 181 kts 185°
2026-04-26 11:43 54.15613 -5.02091 19052 ft 182 kts 185°
2026-04-26 11:44 54.14345 -5.02082 19371 ft 183 kts 185°
2026-04-26 11:44 54.13071 -5.02074 19679 ft 184 kts 185°
2026-04-26 11:44 54.11787 -5.02065 19995 ft 185 kts 185°
2026-04-26 11:44 54.10498 -5.02056 20314 ft 186 kts 185°
2026-04-26 11:45 54.09219 -5.02048 20630 ft 187 kts 185°
2026-04-26 11:45 54.07919 -5.02039 20950 ft 187 kts 185°
2026-04-26 11:45 54.06611 -5.02030 21272 ft 188 kts 185°
2026-04-26 11:45 54.05298 -5.02021 21592 ft 189 kts 185°
2026-04-26 11:46 54.03978 -5.02013 21911 ft 190 kts 185°
2026-04-26 11:46 54.02652 -5.02004 22229 ft 191 kts 185°
2026-04-26 11:46 54.01277 -5.02002 22279 ft 205 kts 185°
2026-04-26 11:46 53.99810 -5.02000 22287 ft 217 kts 185°
2026-04-26 11:47 53.98271 -5.01992 22289 ft 225 kts 185°
2026-04-26 11:47 53.96678 -5.01981 22290 ft 231 kts 185°
2026-04-26 11:47 53.95052 -5.01968 22288 ft 236 kts 185°
2026-04-26 11:47 53.93425 -5.01953 22285 ft 239 kts 184°
2026-04-26 11:48 53.91757 -5.01941 22288 ft 241 kts 185°
2026-04-26 11:48 53.90080 -5.01931 22285 ft 242 kts 184°
2026-04-26 11:48 53.88391 -5.01920 22274 ft 243 kts 184°
2026-04-26 11:48 53.86702 -5.01909 22276 ft 243 kts 184°
2026-04-26 11:49 53.85014 -5.01897 22277 ft 243 kts 184°
2026-04-26 11:49 53.83324 -5.01886 22277 ft 243 kts 184°
2026-04-26 11:49 53.81634 -5.01875 22276 ft 243 kts 184°
2026-04-26 11:49 53.79942 -5.01863 22275 ft 243 kts 184°
2026-04-26 11:50 53.78273 -5.01852 22277 ft 243 kts 184°
2026-04-26 11:50 53.76583 -5.01841 22276 ft 243 kts 184°
2026-04-26 11:50 53.74891 -5.01830 22274 ft 243 kts 184°
2026-04-26 11:50 53.73200 -5.01819 22273 ft 243 kts 184°
2026-04-26 11:51 53.71507 -5.01807 22269 ft 243 kts 184°
2026-04-26 11:51 53.69828 -5.01795 22465 ft 234 kts 184°
2026-04-26 11:51 53.68290 -5.01773 23186 ft 208 kts 185°
2026-04-26 11:51 53.66913 -5.01754 23839 ft 193 kts 186°
2026-04-26 11:52 53.65567 -5.01750 24102 ft 194 kts 186°
2026-04-26 11:52 53.64671 -5.01748 24276 ft 195 kts 186°
2026-04-26 11:52 53.62875 -5.01737 24624 ft 195 kts 186°
2026-04-26 11:52 53.61519 -5.01727 24892 ft 195 kts 186°
2026-04-26 11:53 53.60159 -5.01719 25146 ft 196 kts 186°
2026-04-26 11:53 53.58777 -5.01713 25273 ft 204 kts 186°
2026-04-26 11:53 53.57320 -5.01712 25284 ft 215 kts 186°
2026-04-26 11:54 53.54218 -5.01695 25290 ft 229 kts 185°
2026-04-26 11:54 53.53152 -5.01688 25292 ft 232 kts 185°
2026-04-26 11:54 53.50986 -5.01674 25290 ft 237 kts 185°
2026-04-26 11:54 53.49330 -5.01663 25291 ft 239 kts 185°
2026-04-26 11:55 53.47656 -5.01651 25288 ft 241 kts 185°
2026-04-26 11:55 53.45976 -5.01638 25290 ft 242 kts 185°
2026-04-26 11:55 53.44287 -5.01625 25287 ft 243 kts 185°
2026-04-26 11:55 53.42596 -5.01613 25291 ft 243 kts 185°
2026-04-26 11:56 53.41474 -5.01605 25288 ft 243 kts 185°
2026-04-26 11:56 53.39780 -5.01594 25288 ft 244 kts 185°
2026-04-26 11:56 53.37535 -5.01580 25288 ft 244 kts 185°
2026-04-26 11:56 53.35840 -5.01569 25287 ft 244 kts 185°
2026-04-26 11:57 53.34142 -5.01557 25286 ft 244 kts 185°
2026-04-26 11:57 53.32449 -5.01546 25285 ft 244 kts 185°
2026-04-26 11:57 53.31326 -5.01539 25284 ft 243 kts 185°
2026-04-26 11:57 53.29634 -5.01528 25282 ft 243 kts 185°
2026-04-26 11:58 53.27943 -5.01517 25281 ft 243 kts 185°
2026-04-26 11:58 53.26256 -5.01506 25280 ft 243 kts 185°
2026-04-26 11:58 53.24566 -5.01496 25274 ft 242 kts 185°
2026-04-26 11:58 53.22880 -5.01486 25276 ft 242 kts 185°
2026-04-26 11:59 53.21193 -5.01475 25275 ft 242 kts 185°
2026-04-26 11:59 53.19507 -5.01462 25274 ft 242 kts 185°
2026-04-26 11:59 53.17819 -5.01450 25274 ft 243 kts 185°
2026-04-26 11:59 53.16127 -5.01440 25274 ft 244 kts 185°
2026-04-26 12:00 53.14451 -5.01429 25265 ft 244 kts 185°
2026-04-26 12:00 53.12755 -5.01418 25280 ft 244 kts 185°
2026-04-26 12:00 53.11055 -5.01407 25280 ft 245 kts 185°
2026-04-26 12:00 53.09353 -5.01396 25280 ft 245 kts 185°
2026-04-26 12:01 53.07649 -5.01385 25280 ft 245 kts 185°
2026-04-26 12:01 53.05943 -5.01375 25279 ft 245 kts 185°
2026-04-26 12:01 53.04234 -5.01364 25278 ft 245 kts 185°
2026-04-26 12:01 53.02527 -5.01352 25277 ft 245 kts 185°
2026-04-26 12:02 53.00819 -5.01341 25276 ft 246 kts 185°
2026-04-26 12:02 52.99134 -5.01331 25275 ft 246 kts 185°
2026-04-26 12:02 52.97424 -5.01320 25274 ft 246 kts 185°
2026-04-26 12:02 52.95715 -5.01308 25275 ft 246 kts 185°
2026-04-26 12:03 52.94006 -5.01298 25277 ft 246 kts 185°
2026-04-26 12:03 52.92296 -5.01286 25277 ft 246 kts 185°
2026-04-26 12:03 52.90587 -5.01276 25277 ft 246 kts 185°
2026-04-26 12:03 52.88881 -5.01265 25279 ft 245 kts 185°
2026-04-26 12:04 52.87172 -5.01254 25278 ft 246 kts 185°
2026-04-26 12:04 52.85487 -5.01242 25271 ft 246 kts 185°
2026-04-26 12:04 52.83772 -5.01232 25281 ft 246 kts 185°
2026-04-26 12:04 52.82058 -5.01221 25280 ft 246 kts 185°
2026-04-26 12:05 52.80346 -5.01210 25276 ft 246 kts 185°
2026-04-26 12:05 52.78632 -5.01199 25279 ft 246 kts 185°
2026-04-26 12:05 52.76918 -5.01188 25280 ft 246 kts 185°
2026-04-26 12:05 52.75204 -5.01177 25279 ft 246 kts 185°
2026-04-26 12:06 52.73489 -5.01166 25280 ft 246 kts 185°
2026-04-26 12:06 52.71774 -5.01155 25279 ft 246 kts 185°
2026-04-26 12:06 52.70083 -5.01145 25275 ft 246 kts 185°
2026-04-26 12:06 52.68370 -5.01133 25280 ft 246 kts 185°
2026-04-26 12:07 52.66656 -5.01122 25282 ft 246 kts 185°
2026-04-26 12:07 52.64943 -5.01111 25288 ft 246 kts 184°
2026-04-26 12:07 52.63234 -5.01100 25290 ft 246 kts 184°
2026-04-26 12:07 52.61523 -5.01089 25290 ft 246 kts 184°
2026-04-26 12:08 52.59811 -5.01078 25290 ft 246 kts 184°
2026-04-26 12:08 52.58101 -5.01067 25291 ft 246 kts 184°
2026-04-26 12:08 52.56391 -5.01057 25292 ft 246 kts 184°
2026-04-26 12:08 52.54705 -5.01046 25293 ft 245 kts 184°
2026-04-26 12:09 52.52998 -5.01035 25282 ft 245 kts 184°
2026-04-26 12:09 52.51296 -5.01025 25288 ft 245 kts 184°
2026-04-26 12:09 52.49592 -5.01012 25286 ft 245 kts 184°
2026-04-26 12:09 52.47892 -5.01004 25285 ft 244 kts 184°
2026-04-26 12:10 52.46192 -5.01017 25281 ft 244 kts 184°
2026-04-26 12:10 52.44506 -5.01024 25284 ft 241 kts 184°
2026-04-26 12:10 52.42821 -5.01009 25274 ft 242 kts 184°
2026-04-26 12:10 52.41135 -5.00994 25286 ft 242 kts 184°
2026-04-26 12:11 52.39466 -5.00983 25285 ft 243 kts 184°
2026-04-26 12:11 52.37772 -5.00973 25287 ft 244 kts 184°
2026-04-26 12:11 52.36075 -5.00962 25286 ft 244 kts 184°
2026-04-26 12:11 52.34378 -5.00951 25286 ft 244 kts 184°
2026-04-26 12:12 52.32677 -5.00941 25276 ft 244 kts 184°
2026-04-26 12:12 52.30978 -5.00929 25280 ft 244 kts 184°
2026-04-26 12:12 52.29279 -5.00919 25280 ft 244 kts 184°
2026-04-26 12:12 52.28153 -5.00911 25280 ft 244 kts 184°
2026-04-26 12:13 52.25875 -5.00897 25283 ft 245 kts 184°
2026-04-26 12:13 52.24174 -5.00886 25282 ft 245 kts 184°
2026-04-26 12:13 52.22496 -5.00875 25283 ft 244 kts 184°
2026-04-26 12:13 52.20794 -5.00864 25283 ft 244 kts 184°
2026-04-26 12:14 52.19094 -5.00853 25284 ft 244 kts 184°
2026-04-26 12:14 52.17393 -5.00842 25276 ft 244 kts 184°
2026-04-26 12:14 52.15694 -5.00831 25285 ft 244 kts 183°
2026-04-26 12:14 52.13995 -5.00821 25283 ft 244 kts 183°
2026-04-26 12:15 52.12295 -5.00810 25283 ft 244 kts 184°
2026-04-26 12:15 52.10593 -5.00799 25284 ft 245 kts 184°
2026-04-26 12:15 52.08913 -5.00788 25283 ft 245 kts 184°
2026-04-26 12:15 52.07213 -5.00777 25282 ft 245 kts 184°
2026-04-26 12:16 52.05509 -5.00766 25283 ft 245 kts 184°
2026-04-26 12:16 52.03803 -5.00756 25281 ft 245 kts 184°
2026-04-26 12:16 52.02100 -5.00745 25282 ft 245 kts 184°
2026-04-26 12:16 52.00395 -5.00734 25281 ft 245 kts 184°
2026-04-26 12:17 51.98693 -5.00723 25285 ft 245 kts 184°
2026-04-26 12:17 51.96990 -5.00712 25284 ft 245 kts 184°
2026-04-26 12:17 51.95284 -5.00702 25284 ft 245 kts 184°
2026-04-26 12:17 51.93576 -5.00691 25280 ft 245 kts 183°
2026-04-26 12:18 51.91896 -5.00681 25287 ft 245 kts 183°
2026-04-26 12:18 51.90189 -5.00671 25285 ft 245 kts 183°
2026-04-26 12:18 51.88484 -5.00658 25285 ft 245 kts 183°
2026-04-26 12:18 51.86781 -5.00648 25283 ft 245 kts 183°
2026-04-26 12:19 51.85076 -5.00637 25283 ft 245 kts 183°
2026-04-26 12:19 51.83371 -5.00628 25281 ft 245 kts 183°
2026-04-26 12:19 51.81665 -5.00616 25283 ft 245 kts 183°
2026-04-26 12:19 51.79961 -5.00605 25283 ft 245 kts 183°
2026-04-26 12:20 51.78279 -5.00595 25283 ft 245 kts 183°
2026-04-26 12:20 51.76576 -5.00585 25281 ft 245 kts 183°
2026-04-26 12:20 51.74871 -5.00572 25284 ft 245 kts 183°
2026-04-26 12:20 51.73168 -5.00563 25283 ft 245 kts 183°
2026-04-26 12:21 51.71461 -5.00551 25282 ft 245 kts 183°
2026-04-26 12:21 51.69755 -5.00542 25281 ft 245 kts 183°
2026-04-26 12:21 51.68053 -5.00530 25283 ft 245 kts 183°
2026-04-26 12:21 51.66352 -5.00519 25283 ft 245 kts 183°
2026-04-26 12:22 51.64648 -5.00509 25282 ft 245 kts 183°
2026-04-26 12:22 51.62947 -5.00499 25283 ft 245 kts 183°
2026-04-26 12:22 51.61243 -5.00488 25282 ft 245 kts 183°
2026-04-26 12:22 51.59563 -5.00477 25283 ft 245 kts 183°
2026-04-26 12:23 51.57861 -5.00467 25279 ft 244 kts 183°
2026-04-26 12:23 51.56161 -5.00456 25280 ft 244 kts 183°
2026-04-26 12:23 51.54463 -5.00445 25279 ft 244 kts 183°
2026-04-26 12:23 51.52766 -5.00435 25280 ft 244 kts 183°
2026-04-26 12:24 51.51066 -5.00424 25281 ft 244 kts 183°
2026-04-26 12:24 51.49368 -5.00414 25280 ft 244 kts 183°
2026-04-26 12:24 51.47670 -5.00403 25279 ft 244 kts 183°
2026-04-26 12:25 51.44279 -5.00382 25281 ft 243 kts 183°
2026-04-26 12:25 51.42607 -5.00372 25281 ft 244 kts 183°
2026-04-26 12:25 51.40910 -5.00362 25280 ft 244 kts 183°
2026-04-26 12:25 51.39214 -5.00351 25279 ft 244 kts 183°
2026-04-26 12:26 51.37516 -5.00340 25279 ft 244 kts 183°
2026-04-26 12:26 51.35819 -5.00330 25280 ft 244 kts 183°
2026-04-26 12:26 51.34123 -5.00319 25279 ft 244 kts 183°
2026-04-26 12:26 51.32428 -5.00309 25279 ft 244 kts 183°
2026-04-26 12:27 51.30732 -5.00298 25281 ft 244 kts 183°
2026-04-26 12:27 51.29036 -5.00288 25280 ft 244 kts 183°
2026-04-26 12:27 51.27364 -5.00278 25279 ft 244 kts 183°
2026-04-26 12:27 51.25668 -5.00267 25280 ft 244 kts 183°
2026-04-26 12:28 51.23974 -5.00257 25279 ft 243 kts 183°
2026-04-26 12:28 51.22279 -5.00246 25274 ft 243 kts 183°
2026-04-26 12:28 51.20598 -5.00237 25276 ft 239 kts 184°
2026-04-26 12:28 51.18986 -5.00227 25276 ft 224 kts 184°
2026-04-26 12:29 51.17474 -5.00215 25275 ft 210 kts 184°
2026-04-26 12:29 51.16058 -5.00202 25274 ft 198 kts 184°
2026-04-26 12:29 51.13364 -5.00185 25279 ft 193 kts 184°
2026-04-26 12:30 51.12037 -5.00178 25276 ft 193 kts 184°
2026-04-26 12:30 51.10690 -5.00170 25277 ft 194 kts 184°
2026-04-26 12:30 51.09342 -5.00161 25278 ft 194 kts 184°
2026-04-26 12:31 51.06646 -5.00145 25279 ft 194 kts 184°
2026-04-26 12:31 51.05297 -5.00137 25279 ft 194 kts 184°
2026-04-26 12:31 51.03947 -5.00129 25278 ft 194 kts 184°
2026-04-26 12:31 51.02596 -5.00120 25278 ft 194 kts 184°
2026-04-26 12:32 51.01244 -5.00112 25275 ft 194 kts 184°
2026-04-26 12:32 50.99913 -5.00104 25274 ft 194 kts 184°
2026-04-26 12:32 50.97210 -5.00088 25273 ft 194 kts 184°
2026-04-26 12:33 50.95861 -5.00080 25277 ft 194 kts 184°
2026-04-26 12:33 50.94510 -5.00071 25274 ft 194 kts 184°
2026-04-26 12:33 50.93158 -5.00063 25274 ft 194 kts 184°
2026-04-26 12:33 50.91806 -5.00055 25274 ft 195 kts 184°
2026-04-26 12:34 50.90449 -5.00047 25274 ft 195 kts 184°
2026-04-26 12:34 50.89092 -5.00039 25274 ft 195 kts 184°
2026-04-26 12:34 50.87751 -5.00031 25274 ft 195 kts 184°
2026-04-26 12:34 50.86393 -5.00023 25275 ft 195 kts 184°
2026-04-26 12:35 50.85039 -5.00014 25278 ft 195 kts 184°
2026-04-26 12:35 50.83685 -5.00006 25277 ft 195 kts 184°
2026-04-26 12:35 50.82330 -4.99998 25276 ft 195 kts 184°
2026-04-26 12:35 50.80977 -4.99990 25277 ft 194 kts 184°
2026-04-26 12:36 50.79626 -4.99981 25274 ft 194 kts 184°
2026-04-26 12:36 50.78274 -4.99974 25274 ft 194 kts 184°
2026-04-26 12:36 50.76941 -4.99965 25267 ft 194 kts 184°
2026-04-26 12:36 50.75594 -4.99957 25277 ft 194 kts 184°
2026-04-26 12:37 50.74245 -4.99949 25280 ft 194 kts 184°
2026-04-26 12:37 50.72896 -4.99941 25279 ft 194 kts 184°
2026-04-26 12:37 50.71545 -4.99933 25279 ft 194 kts 184°
2026-04-26 12:37 50.70192 -4.99925 25279 ft 194 kts 184°
2026-04-26 12:38 50.68841 -4.99917 25276 ft 194 kts 184°
2026-04-26 12:38 50.67490 -4.99909 25273 ft 194 kts 184°
2026-04-26 12:38 50.66139 -4.99900 25272 ft 194 kts 184°
2026-04-26 12:38 50.64786 -4.99893 25272 ft 194 kts 184°
2026-04-26 12:39 50.63451 -4.99884 25274 ft 194 kts 184°
2026-04-26 12:39 50.62101 -4.99876 25263 ft 194 kts 184°
2026-04-26 12:39 50.60749 -4.99868 25261 ft 194 kts 184°
2026-04-26 12:39 50.59397 -4.99860 25262 ft 194 kts 184°
2026-04-26 12:40 50.58045 -4.99852 25263 ft 194 kts 184°
2026-04-26 12:40 50.56694 -4.99844 25261 ft 194 kts 184°
2026-04-26 12:40 50.55343 -4.99836 25260 ft 194 kts 184°
2026-04-26 12:40 50.53992 -4.99828 25250 ft 194 kts 184°
2026-04-26 12:41 50.52642 -4.99820 25258 ft 194 kts 184°
2026-04-26 12:41 50.51290 -4.99812 25257 ft 195 kts 184°
2026-04-26 12:41 50.49952 -4.99804 25257 ft 195 kts 184°
2026-04-26 12:41 50.48596 -4.99796 25259 ft 195 kts 184°
2026-04-26 12:42 50.47241 -4.99788 25262 ft 195 kts 184°
2026-04-26 12:42 50.45884 -4.99780 25261 ft 195 kts 185°
2026-04-26 12:42 50.44527 -4.99772 25261 ft 195 kts 184°
2026-04-26 12:42 50.43199 -5.00003 25270 ft 190 kts 203°
2026-04-26 12:43 50.42101 -5.01103 25279 ft 188 kts 225°
2026-04-26 12:43 50.41383 -5.02815 25278 ft 191 kts 247°
2026-04-26 12:43 50.41158 -5.04848 25277 ft 196 kts 268°
2026-04-26 12:43 50.41469 -5.06956 25280 ft 203 kts 289°
2026-04-26 12:44 50.42296 -5.08798 25276 ft 212 kts 311°
2026-04-26 12:44 50.43538 -5.10095 25279 ft 220 kts 332°
2026-04-26 12:44 50.45043 -5.10648 25277 ft 226 kts 354°
2026-04-26 12:44 50.46616 -5.10358 25277 ft 231 kts 15°
2026-04-26 12:45 50.48118 -5.09435 25277 ft 232 kts 20°
2026-04-26 12:45 50.49652 -5.08710 25265 ft 230 kts
2026-04-26 12:45 50.51233 -5.08497 25263 ft 228 kts
2026-04-26 12:45 50.52677 -5.07471 25280 ft 231 kts 37°
2026-04-26 12:46 50.53761 -5.05668 25278 ft 231 kts 59°
2026-04-26 12:46 50.54406 -5.03383 25277 ft 228 kts 81°
2026-04-26 12:46 50.54517 -5.00939 25280 ft 222 kts 102°
2026-04-26 12:46 50.54096 -4.98658 25269 ft 215 kts 123°
2026-04-26 12:47 50.53217 -4.96832 25278 ft 207 kts 145°
2026-04-26 12:47 50.52016 -4.95692 25278 ft 199 kts 166°
2026-04-26 12:47 50.50673 -4.95373 25279 ft 194 kts 188°
2026-04-26 12:47 50.49394 -4.95902 25277 ft 190 kts 209°
2026-04-26 12:48 50.48325 -4.97098 25275 ft 189 kts 219°
2026-04-26 12:48 50.47261 -4.98260 25272 ft 189 kts 212°
2026-04-26 12:48 50.46073 -4.99162 25267 ft 191 kts 204°
2026-04-26 12:48 50.44788 -4.99709 25258 ft 193 kts 192°
2026-04-26 12:49 50.43450 -4.99924 25262 ft 191 kts 196°
2026-04-26 12:49 50.42308 -5.00845 25277 ft 181 kts 221°
2026-04-26 12:49 50.41563 -5.02379 25276 ft 175 kts 244°
2026-04-26 12:49 50.41301 -5.04217 25276 ft 175 kts 266°
2026-04-26 12:50 50.41554 -5.06090 25278 ft 179 kts 289°
2026-04-26 12:50 50.42306 -5.07663 25275 ft 185 kts 313°
2026-04-26 12:50 50.43425 -5.08642 25276 ft 191 kts 338°
2026-04-26 12:50 50.44753 -5.08882 25277 ft 195 kts 358°
2026-04-26 12:51 50.46102 -5.08763 25271 ft 193 kts 359°
2026-04-26 12:51 50.47442 -5.08721 25266 ft 192 kts 356°
2026-04-26 12:51 50.48772 -5.08732 25263 ft 191 kts 355°
2026-04-26 12:51 50.50095 -5.08746 25262 ft 190 kts 355°
2026-04-26 12:52 50.51409 -5.08599 25261 ft 192 kts 14°
2026-04-26 12:52 50.52566 -5.07567 25272 ft 193 kts 44°
2026-04-26 12:52 50.53342 -5.05916 25275 ft 190 kts 70°
2026-04-26 12:52 50.53636 -5.03939 25280 ft 183 kts 96°
2026-04-26 12:53 50.53401 -5.02013 25279 ft 178 kts 122°
2026-04-26 12:53 50.52699 -5.00478 25278 ft 171 kts 147°
2026-04-26 12:53 50.51674 -4.99634 25193 ft 168 kts 174°
2026-04-26 12:53 50.50503 -4.99505 25036 ft 170 kts 188°
2026-04-26 12:54 50.49309 -4.99666 24746 ft 180 kts 189°
2026-04-26 12:54 50.47976 -4.99797 24158 ft 203 kts 185°
2026-04-26 12:54 50.46549 -4.99806 23836 ft 205 kts 183°
2026-04-26 12:54 50.45146 -4.99783 23515 ft 204 kts 183°
2026-04-26 12:55 50.43729 -4.99814 23185 ft 202 kts 190°
2026-04-26 12:55 50.42458 -5.00635 22875 ft 198 kts 218°
2026-04-26 12:55 50.41663 -5.02354 22573 ft 199 kts 250°
2026-04-26 12:55 50.41579 -5.04526 22278 ft 205 kts 279°
2026-04-26 12:56 50.42262 -5.06570 21597 ft 228 kts 309°
2026-04-26 12:56 50.43661 -5.07849 20702 ft 241 kts 343°
2026-04-26 12:56 50.45345 -5.07787 19824 ft 249 kts 17°
2026-04-26 12:56 50.46699 -5.06300 19518 ft 229 kts 53°
2026-04-26 12:57 50.47271 -5.04086 19025 ft 218 kts 89°
2026-04-26 12:57 50.46959 -5.01880 18454 ft 207 kts 127°
2026-04-26 12:57 50.45992 -5.00299 17815 ft 198 kts 152°
2026-04-26 12:58 50.43502 -4.99555 16624 ft 179 kts 197°
2026-04-26 12:58 50.42365 -5.00248 16062 ft 173 kts 215°
2026-04-26 12:58 50.41467 -5.01460 15517 ft 169 kts 232°
2026-04-26 12:58 50.40886 -5.03036 14981 ft 167 kts 249°
2026-04-26 12:59 50.40674 -5.04822 14466 ft 168 kts 266°
2026-04-26 12:59 50.40859 -5.06630 13938 ft 171 kts 284°
2026-04-26 12:59 50.41392 -5.08280 13346 ft 173 kts 294°
2026-04-26 12:59 50.41979 -5.09924 12766 ft 173 kts 292°
2026-04-26 13:00 50.42554 -5.11577 12197 ft 172 kts 292°
2026-04-26 13:00 50.43233 -5.13141 11616 ft 178 kts 307°
2026-04-26 13:00 50.44286 -5.14235 11050 ft 192 kts 339°
2026-04-26 13:00 50.45637 -5.14148 10528 ft 201 kts 19°
2026-04-26 13:01 50.46708 -5.12799 10009 ft 198 kts 62°
2026-04-26 13:01 50.47063 -5.10839 9491 ft 185 kts 99°
2026-04-26 13:01 50.46735 -5.08986 8963 ft 174 kts 122°
2026-04-26 13:01 50.46250 -5.07252 8441 ft 173 kts 120°
2026-04-26 13:02 50.45770 -5.05526 7944 ft 172 kts 120°
2026-04-26 13:02 50.45291 -5.03817 7457 ft 171 kts 119°
2026-04-26 13:02 50.44814 -5.02116 6983 ft 169 kts 118°
2026-04-26 13:02 50.44341 -5.00429 6503 ft 168 kts 118°
2026-04-26 13:03 50.43776 -4.98866 5981 ft 162 kts 139°
2026-04-26 13:03 50.42891 -4.97799 5488 ft 159 kts 147°
2026-04-26 13:03 50.42002 -4.96772 5017 ft 158 kts 146°
2026-04-26 13:03 50.41140 -4.95748 4533 ft 157 kts 145°
2026-04-26 13:04 50.40366 -4.94557 4030 ft 162 kts 120°
2026-04-26 13:04 50.40217 -4.92772 3995 ft 170 kts 82°
2026-04-26 13:04 50.40829 -4.91203 4018 ft 174 kts 40°
2026-04-26 13:04 50.41963 -4.90631 4031 ft 175 kts 356°
2026-04-26 13:05 50.43052 -4.91360 4045 ft 172 kts 313°
2026-04-26 13:05 50.43545 -4.92991 4053 ft 165 kts 277°
2026-04-26 13:05 50.44034 -4.94609 4064 ft 168 kts 307°
2026-04-26 13:05 50.44787 -4.96053 3954 ft 178 kts 306°
2026-04-26 13:06 50.45548 -4.97622 3724 ft 186 kts 302°
2026-04-26 13:06 50.46311 -4.99301 3490 ft 192 kts 304°
2026-04-26 13:06 50.47131 -5.00975 3246 ft 195 kts 306°
2026-04-26 13:06 50.47867 -5.02740 3015 ft 189 kts 299°
2026-04-26 13:07 50.48515 -5.04492 2803 ft 185 kts 299°
2026-04-26 13:07 50.49153 -5.06239 2543 ft 184 kts 298°
2026-04-26 13:07 50.49788 -5.07985 2284 ft 184 kts 299°
2026-04-26 13:07 50.50426 -5.09711 2021 ft 182 kts 300°
2026-04-26 13:08 50.51091 -5.11412 1680 ft 183 kts 304°
2026-04-26 13:08 50.51615 -5.13185 1333 ft 181 kts 275°
2026-04-26 13:08 50.51305 -5.14977 1179 ft 171 kts 231°
2026-04-26 13:08 50.50337 -5.15889 1048 ft 163 kts 187°
2026-04-26 13:09 50.49300 -5.15449 995 ft 153 kts 139°
2026-04-26 13:09 50.48820 -5.14045 993 ft 145 kts 101°
2026-04-26 13:09 50.48666 -5.12505 989 ft 141 kts 101°
2026-04-26 13:09 50.48277 -5.11119 991 ft 139 kts 113°
2026-04-26 13:10 50.47916 -5.09725 994 ft 137 kts 115°
2026-04-26 13:10 50.47457 -5.08446 1084 ft 130 kts 122°
2026-04-26 13:10 50.46993 -5.07266 1122 ft 126 kts 121°
2026-04-26 13:10 50.46554 -5.06141 1102 ft 116 kts 119°
2026-04-26 13:11 50.46170 -5.05088 1018 ft 107 kts 121°
2026-04-26 13:11 50.45824 -5.04169 853 ft 92 kts 120°
2026-04-26 13:11 50.45515 -5.03330 657 ft 87 kts 121°
2026-04-26 13:11 50.45207 -5.02522 542 ft 85 kts 122°
2026-04-26 13:12 50.44908 -5.01744 436 ft 83 kts 123°
2026-04-26 13:12 50.44617 -5.00970 328 ft 81 kts 121°
2026-04-26 13:12 50.44373 -5.00327 326 ft 54 kts 121°
2026-04-26 13:12 50.44228 -4.99935 335 ft 34 kts 118°
2026-04-26 13:13 50.44149 -4.99726 337 ft 20 kts 121°
2026-04-26 13:13 50.44078 -4.99540 347 ft 18 kts 121°
2026-04-26 13:13 50.44012 -4.99503 352 ft 10 kts 185°
2026-04-26 13:13 50.43953 -4.99506 350 ft 7 kts 184°
2026-04-26 13:14 50.43910 -4.99511 351 ft 6 kts 182°
2026-04-26 13:14 50.43834 -4.99517 352 ft 12 kts 182°
2026-04-26 13:14 50.43771 -4.99529 356 ft 8 kts 216°
2026-04-26 13:14 50.43747 -4.99611 352 ft 8 kts 245°
2026-04-26 13:15 50.43736 -4.99650 351 ft 0 kts 248°